createdAt,value
2019-02-19T00:00:12.397Z,14.00
2019-02-19T00:03:13.670Z,15.37
2019-02-19T00:06:13.966Z,11.93
2019-02-19T00:09:14.461Z,12.30
2019-02-19T00:12:14.940Z,12.63
2019-02-19T00:15:16.055Z,12.97
2019-02-19T00:18:16.734Z,11.57
2019-02-19T00:21:17.184Z,15.30
2019-02-19T00:24:17.498Z,10.70
2019-02-19T00:27:17.916Z,11.40
2019-02-19T00:30:18.173Z,12.43
2019-02-19T00:33:18.810Z,14.67
2019-02-19T00:36:19.792Z,11.87
2019-02-19T00:39:20.100Z,15.23
2019-02-19T00:42:20.716Z,14.53
2019-02-19T00:45:21.142Z,12.43
2019-02-19T00:48:21.665Z,12.17
2019-02-19T00:51:22.853Z,12.70
2019-02-19T00:54:23.362Z,14.63
2019-02-19T00:57:23.900Z,16.40
2019-02-19T01:00:24.746Z,14.83
2019-02-19T01:03:25.474Z,13.43
2019-02-19T01:06:14.281Z,11.50
2019-02-19T01:12:14.572Z,12.63
2019-02-19T01:15:15.474Z,10.90
2019-02-19T01:18:16.154Z,10.00
2019-02-19T01:21:16.439Z,10.93
2019-02-19T01:24:16.970Z,14.90
2019-02-19T01:27:17.557Z,8.67
2019-02-19T01:30:18.310Z,11.23
2019-02-19T01:33:18.753Z,10.57
2019-02-19T01:36:19.067Z,11.83
2019-02-19T01:39:20.028Z,10.20
2019-02-19T01:42:21.180Z,10.47
2019-02-19T01:45:21.721Z,9.03
2019-02-19T01:48:22.296Z,11.93
2019-02-19T01:51:22.569Z,9.03
2019-02-19T01:54:23.153Z,7.83
2019-02-19T01:57:24.217Z,9.73
2019-02-19T02:00:25.503Z,7.13
2019-02-19T02:03:25.729Z,7.07
2019-02-19T02:06:26.146Z,7.60
2019-02-19T02:09:27.393Z,7.17
2019-02-19T02:12:28.005Z,6.87
2019-02-19T02:15:28.286Z,7.17
2019-02-19T02:18:29.329Z,6.27
2019-02-19T02:21:30.161Z,8.17
2019-02-19T02:24:30.487Z,6.13
2019-02-19T02:27:30.953Z,6.47
2019-02-19T02:30:31.608Z,8.60
2019-02-19T02:33:32.125Z,6.63
2019-02-19T02:36:32.373Z,7.77
2019-02-19T02:43:08.600Z,7.20
2019-02-19T02:46:09.627Z,7.77
2019-02-19T02:49:10.305Z,7.90
2019-02-19T02:52:10.847Z,9.80
2019-02-19T02:55:11.533Z,5.40
2019-02-19T02:58:12.033Z,6.70
2019-02-19T03:01:12.414Z,7.60
2019-02-19T03:04:12.778Z,7.70
2019-02-19T03:07:18.213Z,8.40
2019-02-19T03:10:18.760Z,5.80
2019-02-19T03:13:19.970Z,5.33
2019-02-19T03:16:20.305Z,4.83
2019-02-19T03:19:21.161Z,4.93
2019-02-19T03:22:21.580Z,4.90
2019-02-19T03:25:21.984Z,6.40
2019-02-19T03:28:22.689Z,4.40
2019-02-19T03:31:23.079Z,4.67
2019-02-19T03:34:23.427Z,4.80
2019-02-19T03:37:24.224Z,5.77
2019-02-19T03:40:24.632Z,4.90
2019-02-19T03:43:25.120Z,5.17
2019-02-19T03:46:25.702Z,4.93
2019-02-19T03:49:26.143Z,5.33
2019-02-19T03:52:26.451Z,5.37
2019-02-19T03:55:27.421Z,4.67
2019-02-19T03:58:27.981Z,6.23
2019-02-19T04:01:28.765Z,4.53
2019-02-19T04:04:29.587Z,4.50
2019-02-19T04:07:30.172Z,5.50
2019-02-19T04:10:30.427Z,6.47
2019-02-19T04:13:31.349Z,9.10
2019-02-19T04:16:32.307Z,8.00
2019-02-19T04:19:33.349Z,10.17
2019-02-19T04:22:34.631Z,6.27
2019-02-19T04:25:35.828Z,5.40
2019-02-19T04:28:36.157Z,5.20
2019-02-19T04:31:37.133Z,4.80
2019-02-19T04:34:37.718Z,5.30
2019-02-19T04:37:37.953Z,5.33
2019-02-19T04:40:38.545Z,3.63
2019-02-19T04:43:39.193Z,8.43
2019-02-19T04:46:40.000Z,4.30
2019-02-19T04:49:40.401Z,4.90
2019-02-19T04:56:03.224Z,4.17
2019-02-19T04:59:04.213Z,7.17
2019-02-19T05:02:05.429Z,8.20
2019-02-19T05:05:05.774Z,4.17
2019-02-19T05:08:06.109Z,4.90
2019-02-19T05:11:07.212Z,8.07
2019-02-19T05:14:08.479Z,4.27
2019-02-19T05:17:08.829Z,4.73
2019-02-19T05:20:09.145Z,6.73
2019-02-19T05:23:09.641Z,6.40
2019-02-19T05:26:10.338Z,5.03
2019-02-19T05:29:11.606Z,8.23
2019-02-19T05:32:11.957Z,4.37
2019-02-19T05:35:12.398Z,7.97
2019-02-19T05:38:12.902Z,7.77
2019-02-19T05:41:13.375Z,6.13
2019-02-19T05:44:14.098Z,6.17
2019-02-19T05:47:14.540Z,5.33
2019-02-19T05:50:15.730Z,7.00
2019-02-19T05:53:16.242Z,7.97
2019-02-19T05:56:17.422Z,8.03
2019-02-19T05:59:18.081Z,9.10
2019-02-19T06:02:18.630Z,9.77
2019-02-19T06:05:19.432Z,12.10
2019-02-19T06:08:19.759Z,19.80
2019-02-19T06:11:20.277Z,10.50
2019-02-19T06:14:20.736Z,12.13
2019-02-19T06:17:21.098Z,10.50
2019-02-19T06:20:21.991Z,11.17
2019-02-19T06:23:22.527Z,9.20
2019-02-19T06:26:22.865Z,8.77
2019-02-19T06:29:23.825Z,6.50
2019-02-19T06:32:24.979Z,6.53
2019-02-19T06:35:25.222Z,5.97
2019-02-19T06:38:25.821Z,6.20
2019-02-19T06:41:26.174Z,6.63
2019-02-19T06:44:27.110Z,6.30
2019-02-19T06:47:27.537Z,8.93
2019-02-19T06:50:28.414Z,9.70
2019-02-19T06:53:29.121Z,6.20
2019-02-19T06:56:29.506Z,8.10
2019-02-19T06:59:30.190Z,8.50
2019-02-19T07:02:34.817Z,7.53
2019-02-19T07:05:36.178Z,17.33
2019-02-19T07:08:36.847Z,8.13
2019-02-19T07:11:37.769Z,7.30
2019-02-19T07:14:38.245Z,8.67
2019-02-19T07:17:38.562Z,8.27
2019-02-19T07:20:39.206Z,9.37
2019-02-19T07:23:39.989Z,11.93
2019-02-19T07:26:40.422Z,13.13
2019-02-19T07:29:40.866Z,15.43
2019-02-19T07:32:41.548Z,24.03
2019-02-19T07:35:42.850Z,13.10
2019-02-19T07:38:43.333Z,13.60
2019-02-19T07:41:43.806Z,14.00
2019-02-19T07:44:44.597Z,11.57
2019-02-19T07:47:45.541Z,15.17
2019-02-19T07:50:46.206Z,9.97
2019-02-19T07:53:46.905Z,10.77
2019-02-19T07:56:47.897Z,9.37
2019-02-19T07:59:48.230Z,11.83
2019-02-19T08:02:48.779Z,9.57
2019-02-19T08:05:49.789Z,10.10
2019-02-19T08:08:50.360Z,9.47
2019-02-19T08:11:50.739Z,12.90
2019-02-19T08:14:51.865Z,11.50
2019-02-19T08:17:53.136Z,8.10
2019-02-19T08:20:53.826Z,7.80
2019-02-19T08:23:54.323Z,7.80
2019-02-19T08:26:54.665Z,10.23
2019-02-19T08:29:55.214Z,7.03
2019-02-19T08:32:55.837Z,8.30
2019-02-19T08:35:57.153Z,8.87
2019-02-19T08:38:58.190Z,6.50
2019-02-19T08:41:58.450Z,7.23
2019-02-19T08:44:59.245Z,8.67
2019-02-19T08:47:59.965Z,6.73
2019-02-19T08:50:48.729Z,6.10
2019-02-19T08:57:05.237Z,5.28
2019-02-19T09:00:06.482Z,7.37
2019-02-19T09:03:07.970Z,4.70
2019-02-19T09:06:09.293Z,5.05
2019-02-19T09:09:10.581Z,4.83
2019-02-19T09:12:12.062Z,5.15
2019-02-19T09:15:01.237Z,4.28
2019-02-19T09:18:02.991Z,4.85
2019-02-19T09:21:04.351Z,4.60
2019-02-19T09:24:09.496Z,4.67
2019-02-19T09:27:07.569Z,5.37
2019-02-19T09:30:08.390Z,5.03
2019-02-19T09:33:09.059Z,4.23
2019-02-19T09:38:52.765Z,3.75
2019-02-19T09:41:53.962Z,3.70
2019-02-19T09:44:54.918Z,5.28
2019-02-19T09:48:01.280Z,4.08
2019-02-19T09:50:59.846Z,4.58
2019-02-19T09:54:01.170Z,4.80
2019-02-19T09:57:02.382Z,5.20
2019-02-19T10:00:04.163Z,6.03
2019-02-19T10:03:05.459Z,7.35
2019-02-19T10:05:54.570Z,14.20
2019-02-19T10:09:02.850Z,7.37
2019-02-19T10:12:04.009Z,4.57
2019-02-19T10:15:05.302Z,6.22
2019-02-19T10:18:10.336Z,7.83
2019-02-19T10:20:57.694Z,5.65
2019-02-19T10:24:06.118Z,5.70
2019-02-19T10:27:10.416Z,5.72
2019-02-19T10:30:12.128Z,4.67
2019-02-19T10:33:13.753Z,6.60
2019-02-19T10:36:15.348Z,5.15
2019-02-19T10:39:16.234Z,6.42
2019-02-19T10:42:19.019Z,6.00
2019-02-19T10:45:20.919Z,5.33
2019-02-19T10:48:22.544Z,4.78
2019-02-19T10:51:23.789Z,6.28
2019-02-19T10:54:25.268Z,4.87
2019-02-19T10:57:27.053Z,4.80
2019-02-19T11:00:28.328Z,5.67
2019-02-19T11:03:29.774Z,7.17
2019-02-19T11:06:31.019Z,6.15
2019-02-19T11:09:32.422Z,6.67
2019-02-19T11:12:33.986Z,5.70
2019-02-19T11:15:35.479Z,7.28
2019-02-19T11:18:36.706Z,6.10
2019-02-19T11:21:38.038Z,6.67
2019-02-19T11:24:39.228Z,6.62
2019-02-19T11:27:40.157Z,6.00
2019-02-19T11:30:41.227Z,9.40
2019-02-19T11:33:42.605Z,6.70
2019-02-19T11:36:44.001Z,7.75
2019-02-19T11:39:45.350Z,7.28
2019-02-19T11:42:46.874Z,6.58
2019-02-19T11:45:47.974Z,5.97
2019-02-19T11:48:49.546Z,6.28
2019-02-19T11:51:51.339Z,5.85
2019-02-19T11:54:52.615Z,5.90
2019-02-19T11:57:53.967Z,7.22
2019-02-19T12:00:55.190Z,5.30
2019-02-19T12:03:56.529Z,7.05
2019-02-19T12:06:58.214Z,5.55
2019-02-19T12:09:59.810Z,5.58
2019-02-19T12:13:01.210Z,7.12
2019-02-19T12:16:02.634Z,6.72
2019-02-19T12:19:04.242Z,6.62
2019-02-19T12:22:05.701Z,6.08
2019-02-19T12:25:06.942Z,6.20
2019-02-19T12:28:08.282Z,5.90
2019-02-19T12:31:09.787Z,5.33
2019-02-19T12:34:11.101Z,5.17
2019-02-19T12:37:12.274Z,7.35
2019-02-19T12:40:13.881Z,7.67
2019-02-19T12:43:15.282Z,5.50
2019-02-19T12:46:16.798Z,7.17
2019-02-19T12:49:18.322Z,7.33
2019-02-19T12:52:19.537Z,7.40
2019-02-19T12:55:20.740Z,5.95
2019-02-19T12:58:09.839Z,8.83
2019-02-19T13:01:18.558Z,6.42
2019-02-19T13:04:20.196Z,5.20
2019-02-19T13:07:21.736Z,6.10
2019-02-19T13:13:52.215Z,5.72
2019-02-19T13:16:53.735Z,5.90
2019-02-19T13:19:55.177Z,6.80
2019-02-19T13:22:56.502Z,7.05
2019-02-19T13:25:57.886Z,5.87
2019-02-19T13:28:59.396Z,8.33
2019-02-19T13:32:00.749Z,6.65
2019-02-19T13:35:01.668Z,7.75
2019-02-19T13:38:03.388Z,6.92
2019-02-19T13:41:04.814Z,6.08
2019-02-19T13:44:06.183Z,5.60
2019-02-19T13:47:07.527Z,5.37
2019-02-19T13:50:09.283Z,6.10
2019-02-19T13:56:25.073Z,5.10
2019-02-19T13:59:26.424Z,7.30
2019-02-19T14:02:27.604Z,6.15
2019-02-19T14:05:28.950Z,5.85
2019-02-19T14:08:30.910Z,5.40
2019-02-19T14:11:31.885Z,6.60
2019-02-19T14:14:34.484Z,7.00
2019-02-19T14:17:36.277Z,5.97
2019-02-19T14:20:39.498Z,5.42
2019-02-19T14:23:42.302Z,6.83
2019-02-19T14:27:02.598Z,5.53
2019-02-19T14:30:11.745Z,5.78
2019-02-19T14:33:17.558Z,6.55
2019-02-19T14:36:23.532Z,5.75
2019-02-19T14:39:43.779Z,6.62
2019-02-19T14:42:50.415Z,5.55
2019-02-19T14:45:55.976Z,5.78
2019-02-19T14:48:58.708Z,7.83
2019-02-19T14:52:04.487Z,6.05
2019-02-19T14:55:07.336Z,5.92
2019-02-19T15:01:55.861Z,8.30
2019-02-19T15:05:01.633Z,8.08
2019-02-19T15:08:21.929Z,9.28
2019-02-19T15:11:46.193Z,10.30
2019-02-19T15:18:25.079Z,8.65
2019-02-19T15:21:27.654Z,8.75
2019-02-19T15:24:30.986Z,9.55
2019-02-19T15:27:33.517Z,10.30
2019-02-19T15:33:42.027Z,10.35
2019-02-19T15:37:10.836Z,11.88
2019-02-19T15:40:30.841Z,8.90
2019-02-19T15:43:42.574Z,10.40
2019-02-19T15:47:09.637Z,8.97
2019-02-19T15:50:29.209Z,10.07
2019-02-19T15:53:35.106Z,10.33
2019-02-19T15:56:37.409Z,9.77
2019-02-19T15:59:57.401Z,9.97
2019-02-19T16:03:04.006Z,12.20
2019-02-19T16:06:23.875Z,10.97
2019-02-19T16:13:00.296Z,10.73
2019-02-19T16:19:33.039Z,14.43
2019-02-19T16:22:35.554Z,11.53
2019-02-19T16:25:55.751Z,15.23
2019-02-19T16:28:58.069Z,11.03
2019-02-19T16:32:00.598Z,13.83
2019-02-19T16:35:03.137Z,12.80
2019-02-19T16:38:05.709Z,13.30
2019-02-19T16:44:41.014Z,11.30
2019-02-19T16:47:46.223Z,15.57
2019-02-19T16:50:48.927Z,11.60
2019-02-19T16:54:09.062Z,12.70
2019-02-19T16:57:14.938Z,11.63
2019-02-19T17:03:31.400Z,11.30
2019-02-19T17:09:51.063Z,12.93
2019-02-19T17:16:38.294Z,13.40
2019-02-19T17:19:45.276Z,16.47
2019-02-19T17:26:21.550Z,15.17
2019-02-19T17:29:41.109Z,15.30
2019-02-19T17:32:46.948Z,18.83
2019-02-19T17:36:06.824Z,13.63
2019-02-19T17:42:39.894Z,17.90
2019-02-19T17:45:45.399Z,22.00
2019-02-19T17:48:57.761Z,17.03
2019-02-19T17:52:00.084Z,17.87
2019-02-19T17:55:19.946Z,14.87
2019-02-19T17:58:29.089Z,16.73
2019-02-19T18:01:49.497Z,13.63
2019-02-19T18:08:37.194Z,15.73
2019-02-19T18:11:39.666Z,21.30
2019-02-19T18:14:42.288Z,15.07
2019-02-19T18:18:02.617Z,14.13
2019-02-19T18:21:03.095Z,13.57
2019-02-19T18:24:03.718Z,14.63
2019-02-19T18:27:04.607Z,13.73
2019-02-19T18:30:05.161Z,13.67
2019-02-19T18:33:06.484Z,15.13
2019-02-19T18:36:07.354Z,14.23
2019-02-19T18:39:07.923Z,13.57
2019-02-19T18:42:08.331Z,13.40
2019-02-19T18:45:09.122Z,17.30
2019-02-19T18:48:09.594Z,16.93
2019-02-19T18:51:09.937Z,14.57
2019-02-19T18:54:10.462Z,19.33
2019-02-19T18:57:11.195Z,13.53
2019-02-19T19:00:12.203Z,14.47
2019-02-19T19:03:12.977Z,21.17
2019-02-19T19:06:13.410Z,19.03
2019-02-19T19:09:14.257Z,19.47
2019-02-19T19:12:14.940Z,19.50
2019-02-19T19:15:15.815Z,15.17
2019-02-19T19:18:18.997Z,13.43
2019-02-19T19:21:18.978Z,18.00
2019-02-19T19:24:20.382Z,19.73
2019-02-19T19:27:24.705Z,19.63
2019-02-19T19:30:25.394Z,16.80
2019-02-19T19:33:26.349Z,16.90
2019-02-19T19:36:27.219Z,17.10
2019-02-19T19:39:28.117Z,17.40
2019-02-19T19:42:29.245Z,16.17
2019-02-19T19:45:30.403Z,17.43
2019-02-19T19:48:31.991Z,17.23
2019-02-19T19:51:33.621Z,15.35
2019-02-19T19:54:34.435Z,14.90
2019-02-19T19:57:35.781Z,16.73
2019-02-19T20:00:36.853Z,15.57
2019-02-19T20:03:38.237Z,16.13
2019-02-19T20:06:38.998Z,14.83
2019-02-19T20:09:39.866Z,15.80
2019-02-19T20:12:41.162Z,16.07
2019-02-19T20:15:42.817Z,16.67
2019-02-19T20:18:44.311Z,17.30
2019-02-19T20:21:44.983Z,17.17
2019-02-19T20:24:45.935Z,16.67
2019-02-19T20:27:46.782Z,17.17
2019-02-19T20:30:48.596Z,16.85
2019-02-19T20:33:49.640Z,16.10
2019-02-19T20:36:50.736Z,16.93
2019-02-19T20:39:51.594Z,14.07
2019-02-19T20:42:52.725Z,14.83
2019-02-19T20:45:53.704Z,17.37
2019-02-19T20:48:54.777Z,18.07
2019-02-19T20:51:56.336Z,19.30
2019-02-19T20:54:45.463Z,18.07
2019-02-19T20:57:53.546Z,18.90
2019-02-19T21:00:54.381Z,14.23
2019-02-19T21:03:55.439Z,18.47
2019-02-19T21:06:56.607Z,15.72
2019-02-19T21:09:57.597Z,18.60
2019-02-19T21:12:59.093Z,18.98
2019-02-19T21:16:00.183Z,17.90
2019-02-19T21:19:01.559Z,18.70
2019-02-19T21:22:02.630Z,41.40
2019-02-19T21:25:03.249Z,21.57
2019-02-19T21:28:04.535Z,19.73
2019-02-19T21:31:05.687Z,18.80
2019-02-19T21:34:06.495Z,20.97
2019-02-19T21:37:07.379Z,19.20
2019-02-19T21:40:07.974Z,19.87
2019-02-19T21:43:09.147Z,20.83
2019-02-19T21:46:10.017Z,19.70
2019-02-19T21:49:11.075Z,19.43
2019-02-19T21:52:11.803Z,18.10
2019-02-19T21:55:12.987Z,17.47
2019-02-19T21:58:01.815Z,19.13
2019-02-19T22:01:10.109Z,19.13
2019-02-19T22:04:11.475Z,17.95
2019-02-19T22:07:12.525Z,17.63
2019-02-19T22:10:13.707Z,17.80
2019-02-19T22:13:15.382Z,18.13
2019-02-19T22:16:16.165Z,17.67
2019-02-19T22:19:17.066Z,16.90
2019-02-19T22:22:18.714Z,17.50
2019-02-19T22:25:19.410Z,18.27
2019-02-19T22:28:22.890Z,18.80
2019-02-19T22:31:23.391Z,18.60
2019-02-19T22:34:24.816Z,18.87
2019-02-19T22:37:25.581Z,18.63
2019-02-19T22:40:27.003Z,18.13
2019-02-19T22:43:28.134Z,18.07
2019-02-19T22:46:28.810Z,18.30
2019-02-19T22:49:29.640Z,17.77
2019-02-19T22:52:30.871Z,17.70
2019-02-19T22:55:34.159Z,16.80
2019-02-19T22:58:35.209Z,16.57
2019-02-19T23:01:37.753Z,16.17
2019-02-19T23:04:39.992Z,16.97
2019-02-19T23:07:41.387Z,16.37
2019-02-19T23:10:42.540Z,16.85
2019-02-19T23:13:43.653Z,35.73
2019-02-19T23:16:44.547Z,18.27
2019-02-19T23:19:45.678Z,17.63
2019-02-19T23:22:46.565Z,18.20
2019-02-19T23:25:47.606Z,17.53
2019-02-19T23:28:48.769Z,17.10
2019-02-19T23:31:49.603Z,17.00
2019-02-19T23:34:52.279Z,17.23
2019-02-19T23:37:53.737Z,16.40
2019-02-19T23:40:54.719Z,16.37
2019-02-19T23:43:55.875Z,17.30
2019-02-19T23:46:57.170Z,16.30
2019-02-19T23:49:58.022Z,16.70
2019-02-19T23:52:59.289Z,16.75
2019-02-19T23:56:00.460Z,16.93
2019-02-19T23:59:01.489Z,17.63
